Time;durP1;ratioP1;P1;durP2;ratioP2;P2;SDS_P1;SDS_P2;PMS_P1;PMS_P2;Temp;Humidity;BMP_temperature;BMP_pressure;BME280_temperature;BME280_humidity;BME280_pressure;Samples;Min_cycle;Max_cycle;Signal;HPM_P1;HPM_P2
2021/12/27 00:01:38;;;;;;;13.00;6.10;;;;;;;-11.71;74.00;96401.10;108174;1282;33816;-76
2021/12/27 00:04:06;;;;;;;16.80;6.10;;;;;;;-11.69;73.74;96405.14;107962;1281;40598;-76
2021/12/27 00:06:35;;;;;;;26.80;9.50;;;;;;;-11.73;73.42;96399.20;108003;1283;29697;-76
2021/12/27 00:09:03;;;;;;;14.20;6.50;;;;;;;-11.75;73.38;96397.40;107938;1283;28314;-76
2021/12/27 00:11:35;;;;;;;14.60;6.50;;;;;;;-11.74;73.57;96393.19;107853;1283;33134;-76
2021/12/27 00:14:03;;;;;;;19.30;8.30;;;;;;;-11.73;73.58;96391.83;108049;1283;34529;-76
2021/12/27 00:16:31;;;;;;;16.50;8.00;;;;;;;-11.69;73.57;96393.91;108072;1278;35337;-76
2021/12/27 00:19:00;;;;;;;18.60;7.60;;;;;;;-11.78;73.31;96389.98;108091;1283;30675;-76
2021/12/27 00:21:28;;;;;;;22.50;9.00;;;;;;;-11.83;73.33;96392.38;108077;1283;35752;-76
2021/12/27 00:23:57;;;;;;;16.00;8.10;;;;;;;-11.91;73.14;96389.59;108095;1283;36495;-76
2021/12/27 00:26:25;;;;;;;23.40;9.40;;;;;;;-12.02;73.11;96392.20;108065;1281;38889;-76
2021/12/27 00:28:54;;;;;;;18.80;8.10;;;;;;;-11.97;73.41;96392.17;108102;1283;28055;-76
2021/12/27 00:31:22;;;;;;;22.20;9.40;;;;;;;-11.93;73.47;96391.48;108058;1279;37381;-76
2021/12/27 00:33:50;;;;;;;22.80;9.40;;;;;;;-11.90;73.40;96392.65;107942;1281;40583;-76
2021/12/27 00:36:19;;;;;;;18.10;7.20;;;;;;;-11.80;73.53;96396.18;108143;1282;28994;-76
2021/12/27 00:38:47;;;;;;;17.30;7.30;;;;;;;-11.75;73.34;96398.26;107903;1281;35442;-76
2021/12/27 00:41:16;;;;;;;16.20;6.80;;;;;;;-11.73;73.12;96400.06;107905;1283;41191;-76
2021/12/27 00:43:44;;;;;;;29.30;10.20;;;;;;;-11.71;73.06;96395.79;107874;1282;39875;-76
2021/12/27 00:46:13;;;;;;;23.00;8.30;;;;;;;-11.71;73.05;96390.85;108016;1283;41051;-76
2021/12/27 00:48:41;;;;;;;16.90;8.00;;;;;;;-11.67;72.84;96391.31;108089;1278;33413;-76
2021/12/27 00:51:10;;;;;;;18.40;8.60;;;;;;;-11.67;72.71;96389.14;108094;1282;34491;-76
2021/12/27 00:53:38;;;;;;;14.40;7.60;;;;;;;-11.68;72.77;96388.88;108141;1282;26775;-76
2021/12/27 00:56:06;;;;;;;16.90;7.80;;;;;;;-11.71;72.69;96383.02;108114;1283;36811;-76
2021/12/27 00:58:35;;;;;;;13.10;5.60;;;;;;;-11.75;72.64;96385.92;108151;1283;38298;-76
2021/12/27 01:01:03;;;;;;;16.40;7.50;;;;;;;-11.74;72.81;96383.80;108087;1281;44412;-76
2021/12/27 01:03:32;;;;;;;15.60;7.00;;;;;;;-11.78;72.79;96382.13;108100;1283;35192;-76
2021/12/27 01:06:00;;;;;;;11.40;5.10;;;;;;;-11.77;73.01;96381.86;108116;1282;35864;-76
2021/12/27 01:08:28;;;;;;;16.60;8.20;;;;;;;-11.74;73.10;96378.30;108047;1282;38232;-76
2021/12/27 01:11:13;;;;;;;14.90;7.40;;;;;;;-11.71;72.96;96373.94;108107;1278;30153;-76
2021/12/27 01:13:44;;;;;;;12.80;6.00;;;;;;;-11.71;72.97;96366.65;108100;1282;39251;-76
2021/12/27 01:16:16;;;;;;;14.30;6.40;;;;;;;-11.68;73.16;96367.92;108057;1283;37579;-76
2021/12/27 01:18:47;;;;;;;16.60;6.30;;;;;;;-11.62;72.92;96370.07;108152;1282;27844;-76
2021/12/27 01:21:19;;;;;;;14.30;6.70;;;;;;;-11.65;72.68;96369.69;108231;1283;31327;-76
2021/12/27 01:23:48;;;;;;;11.20;5.40;;;;;;;-11.77;72.44;96365.73;107903;1282;39056;-76
2021/12/27 01:26:17;;;;;;;11.50;5.10;;;;;;;-11.93;72.69;96364.40;107908;1283;32940;-76
2021/12/27 01:28:45;;;;;;;13.90;6.20;;;;;;;-11.97;72.97;96365.95;107870;1283;39444;-76
2021/12/27 01:31:14;;;;;;;14.40;5.90;;;;;;;-11.98;72.93;96367.00;107880;1283;36367;-76
2021/12/27 01:33:44;;;;;;;10.30;4.80;;;;;;;-12.02;72.91;96367.70;107960;1281;28426;-76
2021/12/27 01:36:13;;;;;;;13.60;6.00;;;;;;;-12.03;72.80;96366.00;107898;1282;48944;-76
2021/12/27 01:38:42;;;;;;;12.10;5.60;;;;;;;-12.07;72.98;96364.66;107924;1283;33836;-76
2021/12/27 01:41:13;;;;;;;9.40;5.00;;;;;;;-12.06;73.04;96364.76;107897;1282;34592;-76
2021/12/27 01:43:42;;;;;;;14.50;5.40;;;;;;;-12.07;72.97;96364.44;107927;1282;34273;-76
2021/12/27 01:46:13;;;;;;;14.50;6.50;;;;;;;-12.13;72.87;96364.48;107913;1281;51543;-76
2021/12/27 01:48:44;;;;;;;13.30;6.00;;;;;;;-12.17;72.92;96362.47;107860;1282;36065;-76
2021/12/27 01:51:15;;;;;;;16.90;7.60;;;;;;;-12.17;72.95;96360.96;108078;1282;43953;-75
2021/12/27 01:53:45;;;;;;;14.30;6.50;;;;;;;-12.17;72.94;96357.10;107962;1283;33345;-75
2021/12/27 01:56:15;;;;;;;11.60;5.10;;;;;;;-12.20;72.85;96360.43;107869;1282;39512;-75
2021/12/27 01:58:45;;;;;;;10.80;6.50;;;;;;;-12.21;72.99;96356.56;107891;1283;38922;-75
2021/12/27 02:01:12;;;;;;;;;;;;;;;-12.21;72.98;96359.68;108096;1283;40498;-75
2021/12/27 02:03:41;;;;;;;13.80;6.90;;;;;;;-12.22;73.03;96360.77;107905;1283;41217;-75
2021/12/27 02:06:10;;;;;;;26.30;11.00;;;;;;;-12.26;73.25;96358.27;107875;1283;36319;-76
2021/12/27 02:08:41;;;;;;;37.30;15.00;;;;;;;-12.29;73.26;96357.52;107981;1283;33455;-76
2021/12/27 02:11:12;;;;;;;33.10;13.00;;;;;;;-12.31;73.35;96354.46;107887;1280;44208;-76
2021/12/27 02:13:43;;;;;;;26.30;12.30;;;;;;;-12.30;73.12;96354.02;107895;1283;37058;-76
2021/12/27 02:16:13;;;;;;;28.50;11.60;;;;;;;-12.31;73.15;96355.86;108125;1284;31417;-76
2021/12/27 02:18:44;;;;;;;26.50;10.50;;;;;;;-12.34;73.10;96357.94;107901;1283;36675;-76
2021/12/27 02:21:13;;;;;;;24.30;10.60;;;;;;;-12.36;72.90;96357.38;107937;1283;31923;-76
2021/12/27 02:23:42;;;;;;;22.30;8.50;;;;;;;-12.42;72.95;96354.52;107923;1282;44069;-76
2021/12/27 02:26:12;;;;;;;22.80;9.30;;;;;;;-12.41;73.14;96350.66;108093;1281;32718;-76
2021/12/27 02:28:40;;;;;;;19.10;6.90;;;;;;;-12.39;73.17;96347.89;107917;1283;36797;-76
2021/12/27 02:31:09;;;;;;;21.40;8.60;;;;;;;-12.38;73.28;96342.70;107955;1283;34683;-76
2021/12/27 02:33:39;;;;;;;15.90;6.50;;;;;;;-12.41;73.35;96338.36;108000;1283;27290;-76
2021/12/27 02:36:09;;;;;;;15.20;7.20;;;;;;;-12.51;73.23;96331.50;107999;1283;28973;-76
2021/12/27 02:38:39;;;;;;;15.70;6.60;;;;;;;-12.54;73.24;96330.75;108041;1283;30835;-76
2021/12/27 02:41:09;;;;;;;14.00;5.60;;;;;;;-12.55;73.12;96330.36;107951;1283;33169;-76
2021/12/27 02:43:42;;;;;;;14.80;7.00;;;;;;;-12.69;72.70;96330.80;107957;1282;35897;-76
2021/12/27 02:46:12;;;;;;;16.30;6.70;;;;;;;-12.88;72.64;96325.86;107932;1283;34444;-76
2021/12/27 02:48:45;;;;;;;15.10;6.30;;;;;;;-12.92;73.05;96328.27;107893;1283;51052;-76
2021/12/27 02:51:16;;;;;;;17.10;6.60;;;;;;;-12.90;73.25;96327.05;107927;1283;39035;-76
2021/12/27 02:53:47;;;;;;;13.90;6.00;;;;;;;-12.86;73.36;96330.13;108144;1283;28763;-76
2021/12/27 02:56:17;;;;;;;14.00;6.00;;;;;;;-12.85;73.34;96330.36;107930;1284;31265;-76
2021/12/27 02:58:45;;;;;;;12.30;5.60;;;;;;;-12.85;73.34;96333.92;107933;1281;35993;-76
2021/12/27 03:01:15;;;;;;;14.70;6.10;;;;;;;-12.84;73.42;96331.83;107870;1283;36867;-76
2021/12/27 03:03:44;;;;;;;16.20;6.50;;;;;;;-12.80;73.50;96334.37;107911;1283;30553;-76
2021/12/27 03:06:13;;;;;;;15.00;6.20;;;;;;;-12.80;73.57;96326.55;108109;1282;37369;-76
2021/12/27 03:08:45;;;;;;;15.00;6.50;;;;;;;-12.83;73.67;96328.11;107887;1281;37804;-76
2021/12/27 03:11:14;;;;;;;15.00;5.90;;;;;;;-12.82;73.54;96325.54;108118;1283;39208;-76
2021/12/27 03:13:46;;;;;;;17.60;6.50;;;;;;;-12.85;73.32;96327.86;107942;1283;28896;-76
2021/12/27 03:16:17;;;;;;;12.70;5.80;;;;;;;-12.86;73.42;96323.13;107876;1283;39876;-76
2021/12/27 03:18:47;;;;;;;14.00;5.20;;;;;;;-12.89;73.28;96324.82;107948;1284;29687;-76
2021/12/27 03:21:16;;;;;;;12.90;5.90;;;;;;;-12.98;73.02;96326.90;108105;1282;32950;-76
2021/12/27 03:23:45;;;;;;;12.40;5.50;;;;;;;-13.06;73.08;96323.29;108070;1282;32999;-76
2021/12/27 03:26:14;;;;;;;12.50;5.40;;;;;;;-13.12;73.19;96327.22;107919;1282;32779;-76
2021/12/27 03:28:43;;;;;;;11.30;4.70;;;;;;;-13.19;73.22;96332.83;107861;1283;44213;-76
2021/12/27 03:31:12;;;;;;;12.90;6.20;;;;;;;-13.23;73.36;96333.31;107901;1283;33323;-76
2021/12/27 03:33:40;;;;;;;13.10;5.80;;;;;;;-13.25;73.52;96333.64;107908;1281;35086;-76
2021/12/27 03:36:09;;;;;;;12.30;4.60;;;;;;;-13.25;73.84;96332.63;107960;1283;38652;-76
2021/12/27 03:38:40;;;;;;;13.30;5.70;;;;;;;-13.24;73.76;96331.23;108013;1283;29461;-76
2021/12/27 03:41:12;;;;;;;10.40;5.40;;;;;;;-13.27;73.72;96330.99;108167;1282;37839;-76
2021/12/27 03:43:41;;;;;;;13.60;6.00;;;;;;;-13.26;73.96;96326.10;107938;1284;35511;-76
2021/12/27 03:46:10;;;;;;;10.90;5.50;;;;;;;-13.19;74.08;96327.16;107913;1283;35410;-76
2021/12/27 03:48:38;;;;;;;14.40;6.00;;;;;;;-13.13;74.20;96329.69;108196;1283;30403;-76
2021/12/27 03:51:07;;;;;;;13.70;5.40;;;;;;;-13.15;74.04;96331.23;107965;1282;29833;-76
2021/12/27 03:53:36;;;;;;;15.10;6.00;;;;;;;-13.21;73.81;96330.11;107964;1283;35945;-76
2021/12/27 03:56:05;;;;;;;15.40;5.90;;;;;;;-13.22;73.87;96331.52;107993;1283;30969;-76
2021/12/27 03:58:46;;;;;;;15.20;6.50;;;;;;;-13.16;74.05;96330.14;107980;1283;35578;-76
2021/12/27 04:01:20;;;;;;;14.10;6.20;;;;;;;-13.16;74.15;96332.85;107904;1283;34448;-76
2021/12/27 04:03:52;;;;;;;21.10;9.10;;;;;;;-13.35;74.03;96333.27;107895;1283;39673;-76
2021/12/27 04:06:22;;;;;;;18.30;7.30;;;;;;;-13.54;73.93;96335.26;108137;1282;34926;-76
2021/12/27 04:08:53;;;;;;;17.90;7.10;;;;;;;-13.61;74.02;96333.34;107877;1284;27613;-76
2021/12/27 04:11:22;;;;;;;15.10;7.20;;;;;;;-13.60;74.09;96337.55;108100;1283;35767;-76
2021/12/27 04:13:50;;;;;;;18.50;7.40;;;;;;;-13.68;73.90;96340.09;108120;1278;30660;-76
2021/12/27 04:16:19;;;;;;;14.70;6.80;;;;;;;-13.73;73.97;96345.09;107908;1283;34865;-76
2021/12/27 04:18:47;;;;;;;16.20;7.40;;;;;;;-13.75;74.03;96347.16;107937;1283;38934;-76
2021/12/27 04:21:16;;;;;;;17.70;8.30;;;;;;;-13.80;74.18;96343.88;107895;1283;28640;-76
2021/12/27 04:23:44;;;;;;;14.30;8.00;;;;;;;-13.83;74.37;96346.16;107882;1283;46504;-76
2021/12/27 04:26:12;;;;;;;22.80;7.50;;;;;;;-13.82;74.50;96347.23;107889;1283;36839;-76
2021/12/27 04:28:41;;;;;;;14.30;6.60;;;;;;;-13.80;74.51;96349.61;108068;1283;37440;-76
2021/12/27 04:31:09;;;;;;;14.40;7.70;;;;;;;-13.79;74.61;96354.48;107920;1283;35505;-76
2021/12/27 04:33:38;;;;;;;14.90;6.50;;;;;;;-13.77;74.73;96347.70;108021;1281;33705;-76
2021/12/27 04:36:07;;;;;;;18.90;8.50;;;;;;;-13.73;74.84;96341.23;107957;1284;30765;-76
2021/12/27 04:38:36;;;;;;;24.00;9.70;;;;;;;-13.65;75.08;96335.43;107993;1281;34404;-76
2021/12/27 04:41:06;;;;;;;15.40;7.20;;;;;;;-13.64;75.11;96338.23;108014;1284;25067;-76
2021/12/27 04:43:34;;;;;;;13.90;6.50;;;;;;;-13.75;74.98;96342.57;107916;1283;37100;-76
2021/12/27 04:46:03;;;;;;;17.20;7.50;;;;;;;-13.84;74.87;96343.88;107927;1284;30617;-76
2021/12/27 04:48:32;;;;;;;15.30;7.60;;;;;;;-13.88;74.99;96346.95;107961;1283;34297;-76
2021/12/27 04:51:00;;;;;;;18.00;8.30;;;;;;;-13.98;74.89;96345.77;108069;1284;35337;-76
2021/12/27 04:53:28;;;;;;;21.30;9.10;;;;;;;-14.06;74.95;96348.67;107934;1283;30828;-76
2021/12/27 04:55:57;;;;;;;23.70;11.90;;;;;;;-14.11;75.07;96350.64;107889;1283;38143;-75
2021/12/27 04:58:25;;;;;;;22.80;11.40;;;;;;;-14.14;75.22;96354.80;107911;1284;38600;-75
2021/12/27 05:00:54;;;;;;;25.70;10.50;;;;;;;-14.11;75.23;96357.90;107894;1282;35722;-75
2021/12/27 05:03:23;;;;;;;25.90;11.40;;;;;;;-14.12;75.01;96359.89;107935;1281;30855;-75
2021/12/27 05:05:51;;;;;;;25.50;12.60;;;;;;;-14.16;75.05;96366.00;107932;1283;35312;-75
2021/12/27 05:08:20;;;;;;;31.80;13.20;;;;;;;-14.18;74.97;96367.27;107921;1282;34810;-75
2021/12/27 05:10:48;;;;;;;31.50;12.60;;;;;;;-14.20;75.09;96365.68;107887;1284;29648;-75
2021/12/27 05:13:18;;;;;;;30.10;13.90;;;;;;;-14.19;75.25;96365.07;107948;1283;30115;-75
2021/12/27 05:15:46;;;;;;;34.70;15.30;;;;;;;-14.22;75.38;96367.73;108107;1283;40943;-76
2021/12/27 05:18:15;;;;;;;43.70;18.90;;;;;;;-14.25;75.49;96365.95;107905;1284;39187;-76
2021/12/27 05:20:44;;;;;;;44.40;20.40;;;;;;;-14.24;75.56;96357.36;107956;1283;35323;-75
2021/12/27 05:23:12;;;;;;;47.70;21.90;;;;;;;-14.14;75.71;96354.51;107867;1284;37833;-76
2021/12/27 05:25:40;;;;;;;51.20;24.30;;;;;;;-14.04;75.91;96357.23;107896;1283;30238;-75
2021/12/27 05:28:09;;;;;;;31.00;15.00;;;;;;;-13.98;75.85;96360.06;107961;1284;39155;-75
2021/12/27 05:30:38;;;;;;;34.80;15.10;;;;;;;-13.99;75.82;96363.05;108054;1283;41130;-75
2021/12/27 05:33:07;;;;;;;44.20;18.90;;;;;;;-14.06;75.62;96357.52;108016;1283;35568;-76
2021/12/27 05:35:35;;;;;;;36.30;16.90;;;;;;;-14.05;75.73;96355.87;107969;1283;34731;-75
2021/12/27 05:38:03;;;;;;;33.10;16.10;;;;;;;-14.01;75.68;96358.78;107978;1284;28871;-75
2021/12/27 05:40:31;;;;;;;42.00;18.60;;;;;;;-13.99;75.60;96363.71;107906;1284;38063;-76
2021/12/27 05:43:00;;;;;;;47.90;22.30;;;;;;;-14.09;75.40;96365.10;108107;1284;35326;-75
2021/12/27 05:45:28;;;;;;;44.70;21.70;;;;;;;-14.20;75.32;96362.25;107897;1283;36865;-75
2021/12/27 05:47:56;;;;;;;38.30;17.90;;;;;;;-14.23;75.45;96359.45;108112;1284;34598;-75
2021/12/27 05:50:25;;;;;;;32.00;17.00;;;;;;;-14.19;75.49;96365.07;107923;1284;37308;-75
2021/12/27 05:52:53;;;;;;;48.50;21.90;;;;;;;-14.18;75.45;96364.45;107896;1282;38852;-75
2021/12/27 05:55:24;;;;;;;43.10;19.40;;;;;;;-14.16;75.54;96367.70;107947;1284;30589;-75
2021/12/27 05:57:53;;;;;;;54.20;25.30;;;;;;;-14.16;75.57;96367.88;107872;1284;38661;-75
2021/12/27 06:00:21;;;;;;;55.20;26.60;;;;;;;-14.23;75.56;96362.58;108111;1282;31160;-75
2021/12/27 06:02:51;;;;;;;50.70;24.70;;;;;;;-14.30;75.63;96361.10;107933;1284;38211;-75
2021/12/27 06:05:20;;;;;;;50.50;23.60;;;;;;;-14.33;75.64;96360.05;107962;1283;31633;-76
2021/12/27 06:07:48;;;;;;;60.00;24.70;;;;;;;-14.29;75.82;96359.00;107918;1281;32681;-76
2021/12/27 06:10:17;;;;;;;54.70;23.90;;;;;;;-14.22;75.90;96356.90;107915;1284;31523;-75
2021/12/27 06:12:46;;;;;;;50.90;22.90;;;;;;;-14.15;75.99;96361.69;107868;1283;47422;-75
2021/12/27 06:15:15;;;;;;;52.60;24.90;;;;;;;-14.07;76.09;96361.99;108110;1282;30113;-75
2021/12/27 06:17:43;;;;;;;41.70;19.00;;;;;;;-14.03;75.81;96361.52;107889;1283;34821;-75
2021/12/27 06:20:14;;;;;;;36.90;17.90;;;;;;;-14.05;75.40;96364.23;107942;1284;44626;-75
2021/12/27 06:22:49;;;;;;;43.70;22.50;;;;;;;-14.13;75.30;96367.92;107910;1284;28806;-75
2021/12/27 06:25:18;;;;;;;53.80;24.50;;;;;;;-14.25;75.26;96365.07;108077;1282;37414;-76
2021/12/27 06:27:46;;;;;;;58.50;26.80;;;;;;;-14.36;75.37;96362.50;108092;1282;33724;-75
2021/12/27 06:30:16;;;;;;;60.10;29.40;;;;;;;-14.42;75.83;96360.94;107940;1283;33011;-75
2021/12/27 06:32:45;;;;;;;58.80;27.80;;;;;;;-14.43;75.89;96365.09;107898;1283;37422;-76
2021/12/27 06:35:15;;;;;;;45.60;21.40;;;;;;;-14.40;76.09;96357.52;108061;1282;53099;-75
2021/12/27 06:37:46;;;;;;;47.40;23.70;;;;;;;-14.37;76.28;96351.66;108100;1282;33031;-75
2021/12/27 06:40:16;;;;;;;55.80;28.30;;;;;;;-14.31;76.31;96356.30;107911;1284;31831;-75
2021/12/27 06:42:45;;;;;;;48.00;22.10;;;;;;;-14.31;76.14;96355.23;107954;1284;29675;-75
2021/12/27 06:45:14;;;;;;;46.60;19.90;;;;;;;-14.34;75.90;96354.36;107908;1283;35303;-75
2021/12/27 06:47:43;;;;;;;51.70;19.60;;;;;;;-14.31;75.86;96356.81;107891;1283;34286;-75
2021/12/27 06:50:12;;;;;;;51.60;20.90;;;;;;;-14.30;75.67;96351.59;107893;1283;34734;-77
2021/12/27 06:52:41;;;;;;;61.80;25.90;;;;;;;-14.33;75.80;96347.52;107924;1282;36336;-75
2021/12/27 06:55:11;;;;;;;57.00;25.60;;;;;;;-14.28;76.07;96350.05;108056;1284;37728;-75
2021/12/27 06:57:39;;;;;;;50.60;21.00;;;;;;;-14.16;76.03;96351.10;107897;1284;38462;-76
2021/12/27 07:00:12;;;;;;;56.70;23.50;;;;;;;-14.08;76.12;96361.58;107934;1283;39477;-76
2021/12/27 07:02:40;;;;;;;50.70;22.60;;;;;;;-14.02;76.32;96362.11;108120;1283;43801;-76
2021/12/27 07:05:10;;;;;;;50.10;23.70;;;;;;;-13.93;76.36;96358.06;107983;1284;33383;-75
2021/12/27 07:07:40;;;;;;;43.00;18.30;;;;;;;-13.84;76.33;96358.25;107980;1283;37179;-76
2021/12/27 07:10:12;;;;;;;50.30;19.90;;;;;;;-13.73;76.35;96358.07;107950;1284;32834;-76
2021/12/27 07:12:40;;;;;;;49.80;23.40;;;;;;;-13.60;76.27;96358.20;108158;1284;36002;-75
2021/12/27 07:15:09;;;;;;;46.70;21.70;;;;;;;-13.49;76.28;96356.41;108149;1282;36991;-75
2021/12/27 07:17:38;;;;;;;57.20;24.70;;;;;;;-13.40;75.99;96356.12;108188;1282;30934;-75
2021/12/27 07:20:10;;;;;;;47.70;22.40;;;;;;;-13.32;75.76;96355.92;107966;1284;40019;-75
2021/12/27 07:22:39;;;;;;;50.10;20.50;;;;;;;-13.44;75.17;96349.67;108194;1280;33850;-75
2021/12/27 07:25:09;;;;;;;50.00;23.10;;;;;;;-13.49;74.98;96350.77;108123;1284;30728;-75
2021/12/27 07:27:38;;;;;;;55.40;24.40;;;;;;;-13.50;75.05;96342.36;108140;1284;37808;-75
2021/12/27 07:30:10;;;;;;;46.40;23.70;;;;;;;-13.42;75.27;96337.31;108148;1283;34638;-75
2021/12/27 07:32:39;;;;;;;58.60;27.10;;;;;;;-13.31;75.49;96333.05;108178;1284;34213;-75
2021/12/27 07:35:09;;;;;;;45.10;22.30;;;;;;;-13.10;75.67;96327.71;108012;1277;175303;-75
2021/12/27 07:37:38;;;;;;;52.00;24.90;;;;;;;-12.95;75.64;96324.49;108256;1283;37503;-75
2021/12/27 07:40:09;;;;;;;54.30;26.80;;;;;;;-12.78;75.49;96321.92;108114;1284;58259;-75
2021/12/27 07:42:38;;;;;;;53.30;24.90;;;;;;;-12.57;75.47;96323.36;108203;1284;33167;-75
2021/12/27 07:45:07;;;;;;;48.80;24.40;;;;;;;-12.38;75.47;96323.77;108194;1284;33437;-75
2021/12/27 07:47:36;;;;;;;55.20;23.30;;;;;;;-12.19;75.39;96316.85;108161;1284;35298;-75
2021/12/27 07:50:07;;;;;;;54.00;23.10;;;;;;;-12.00;75.34;96320.41;108171;1284;30927;-75
2021/12/27 07:52:36;;;;;;;55.50;26.00;;;;;;;-11.82;75.06;96320.34;108149;1284;42736;-75
2021/12/27 07:55:06;;;;;;;57.00;24.00;;;;;;;-11.65;75.14;96309.77;108188;1284;31234;-75
2021/12/27 07:57:34;;;;;;;;;;;;;;;-11.42;75.07;96314.73;108170;1283;29937;-75
2021/12/27 08:00:06;;;;;;;34.30;17.90;;;;;;;-11.28;74.78;96313.52;108055;1282;38674;-75
2021/12/27 08:02:35;;;;;;;51.80;27.60;;;;;;;-11.22;74.47;96312.15;108155;1284;29869;-75
2021/12/27 08:05:05;;;;;;;62.80;33.00;;;;;;;-11.16;74.30;96308.60;108096;1284;34224;-75
2021/12/27 08:07:34;;;;;;;59.90;28.00;;;;;;;-11.03;74.28;96298.29;108063;1284;40410;-75
2021/12/27 08:10:04;;;;;;;57.30;27.40;;;;;;;-10.81;74.56;96297.45;108070;1284;28297;-75
2021/12/27 08:12:32;;;;;;;62.30;27.00;;;;;;;-10.60;74.22;96295.54;108114;1284;34243;-75
2021/12/27 08:15:01;;;;;;;58.90;30.60;;;;;;;-10.47;73.97;96291.96;108121;1282;30437;-75
2021/12/27 08:17:30;;;;;;;63.20;29.60;;;;;;;-10.39;73.84;96286.89;108083;1284;35656;-75
2021/12/27 08:19:59;;;;;;;58.60;28.80;;;;;;;-10.20;73.86;96287.77;107917;1284;31907;-75
2021/12/27 08:22:27;;;;;;;57.40;29.30;;;;;;;-10.03;73.78;96283.52;107870;1283;42183;-75
2021/12/27 08:24:57;;;;;;;63.90;28.70;;;;;;;-9.94;73.64;96279.80;107925;1283;43986;-75
2021/12/27 08:27:27;;;;;;;61.50;29.00;;;;;;;-9.86;73.23;96277.60;107921;1283;29927;-75
2021/12/27 08:29:56;;;;;;;60.00;29.50;;;;;;;-9.79;72.92;96272.64;107943;1282;38474;-75
2021/12/27 08:32:26;;;;;;;61.40;29.00;;;;;;;-9.72;72.97;96277.19;107907;1283;35145;-75
2021/12/27 08:34:55;;;;;;;71.40;34.90;;;;;;;-9.80;72.58;96279.55;107886;1283;38224;-75
2021/12/27 08:37:24;;;;;;;57.90;29.70;;;;;;;-10.05;72.04;96279.23;108076;1284;34162;-75
2021/12/27 08:39:52;;;;;;;50.70;27.50;;;;;;;-10.13;72.13;96279.97;107919;1283;31552;-75
2021/12/27 08:42:21;;;;;;;64.20;30.30;;;;;;;-10.05;72.52;96284.24;107895;1284;31677;-75
2021/12/27 08:44:50;;;;;;;65.30;32.20;;;;;;;-9.88;72.61;96276.13;107896;1283;38100;-75
2021/12/27 08:47:19;;;;;;;63.80;32.80;;;;;;;-9.81;72.63;96272.84;107901;1284;35740;-75
2021/12/27 08:49:47;;;;;;;66.40;33.60;;;;;;;-9.77;72.59;96269.36;108113;1282;34637;-75
2021/12/27 08:52:16;;;;;;;68.00;31.30;;;;;;;-9.72;72.32;96273.05;107959;1284;31477;-74
2021/12/27 08:54:45;;;;;;;57.90;30.20;;;;;;;-9.64;72.54;96275.94;107903;1283;31246;-74
2021/12/27 08:57:13;;;;;;;54.70;26.80;;;;;;;-9.66;72.10;96277.10;107928;1284;34464;-75
2021/12/27 08:59:42;;;;;;;54.70;25.80;;;;;;;-9.67;72.15;96276.50;107926;1284;31465;-75
2021/12/27 09:02:12;;;;;;;58.20;28.60;;;;;;;-9.59;72.41;96275.64;107881;1284;38897;-75
2021/12/27 09:04:40;;;;;;;50.50;25.70;;;;;;;-9.49;72.52;96276.31;107936;1284;31313;-75
2021/12/27 09:07:09;;;;;;;46.50;23.10;;;;;;;-9.42;72.48;96276.06;107970;1283;30977;-75
2021/12/27 09:09:37;;;;;;;47.50;25.20;;;;;;;-9.41;72.17;96272.17;108172;1284;33619;-75
2021/12/27 09:12:08;;;;;;;113.40;51.20;;;;;;;-9.51;71.83;96270.71;108167;1284;31512;-74
2021/12/27 09:14:37;;;;;;;82.70;46.10;;;;;;;-9.62;71.91;96273.85;107981;1284;36506;-75
2021/12/27 09:17:06;;;;;;;59.20;30.70;;;;;;;-9.62;71.87;96275.71;108024;1282;29765;-74
2021/12/27 09:19:34;;;;;;;49.10;24.40;;;;;;;-9.61;71.97;96272.05;107984;1283;33175;-74
2021/12/27 09:22:03;;;;;;;44.50;23.70;;;;;;;-9.45;72.52;96270.05;107920;1284;38131;-74
2021/12/27 09:24:32;;;;;;;53.50;26.90;;;;;;;-9.31;72.65;96271.67;107936;1284;44421;-74
2021/12/27 09:27:00;;;;;;;46.60;24.10;;;;;;;-9.35;72.49;96273.39;107823;1283;38464;-75
2021/12/27 09:29:29;;;;;;;46.30;23.60;;;;;;;-9.23;72.76;96273.02;107919;1284;38344;-75
2021/12/27 09:31:57;;;;;;;66.70;34.90;;;;;;;-9.08;72.81;96262.71;107922;1284;35502;-75
2021/12/27 09:34:25;;;;;;;53.20;26.70;;;;;;;-8.79;73.26;96259.39;107860;1284;42996;-75
2021/12/27 09:36:54;;;;;;;51.90;27.50;;;;;;;-8.57;73.31;96254.51;108118;1283;30735;-75
2021/12/27 09:39:22;;;;;;;43.60;24.00;;;;;;;-8.42;73.04;96253.05;107909;1283;33064;-75
2021/12/27 09:41:51;;;;;;;54.30;26.00;;;;;;;-8.32;72.56;96250.42;107926;1284;37300;-75
2021/12/27 09:44:19;;;;;;;47.90;24.00;;;;;;;-8.26;72.71;96245.48;107910;1284;36045;-75
2021/12/27 09:46:48;;;;;;;75.80;33.70;;;;;;;-8.17;72.86;96240.67;107904;1283;39284;-75
2021/12/27 09:49:19;;;;;;;46.40;26.50;;;;;;;-8.07;72.47;96241.40;107922;1283;44956;-76
2021/12/27 09:51:47;;;;;;;71.70;33.50;;;;;;;-8.13;72.23;96243.84;108101;1282;27049;-75
2021/12/27 09:54:16;;;;;;;45.50;23.80;;;;;;;-7.99;72.50;96238.77;107956;1282;31197;-75
2021/12/27 09:56:44;;;;;;;54.30;27.30;;;;;;;-7.82;72.41;96233.96;107898;1284;35541;-75
2021/12/27 09:59:13;;;;;;;107.10;43.30;;;;;;;-7.72;72.48;96228.05;107889;1283;35430;-75
2021/12/27 10:01:41;;;;;;;56.40;25.60;;;;;;;-7.61;72.24;96224.95;108035;1283;42952;-76
2021/12/27 10:04:10;;;;;;;49.70;25.30;;;;;;;-7.51;71.92;96221.98;107991;1283;31466;-75
2021/12/27 10:06:38;;;;;;;59.80;28.90;;;;;;;-7.60;71.41;96213.86;108018;1284;39972;-75
2021/12/27 10:09:06;;;;;;;54.50;26.90;;;;;;;-7.47;72.12;96209.44;108150;1284;34229;-75
2021/12/27 10:11:37;;;;;;;71.10;32.00;;;;;;;-7.27;72.28;96201.30;108011;1283;40388;-75
2021/12/27 10:14:08;;;;;;;53.00;26.00;;;;;;;-7.12;72.07;96198.17;107972;1284;39489;-75
2021/12/27 10:16:39;;;;;;;48.00;26.30;;;;;;;-7.13;71.61;96195.08;107999;1284;35822;-75
2021/12/27 10:19:07;;;;;;;;;;;;;;;-7.14;71.15;96191.90;108061;1283;36253;-76
2021/12/27 10:21:35;;;;;;;44.60;23.40;;;;;;;-7.18;71.23;96193.93;108216;1283;34077;-75
2021/12/27 10:24:07;;;;;;;39.60;21.10;;;;;;;-7.07;71.44;96198.98;108118;1283;35183;-75
2021/12/27 10:26:37;;;;;;;45.10;24.10;;;;;;;-7.09;71.10;96201.90;108107;1283;34115;-75
2021/12/27 10:29:11;;;;;;;38.40;20.40;;;;;;;-7.05;71.13;96201.88;107885;1284;39255;-75
2021/12/27 10:31:56;;;;;;;43.90;21.90;;;;;;;-7.06;71.29;96201.98;108008;1283;35741;-75
2021/12/27 10:34:26;;;;;;;41.20;21.00;;;;;;;-7.02;71.50;96196.73;107969;1284;35452;-75
2021/12/27 10:37:04;;;;;;;44.40;23.90;;;;;;;-7.05;70.97;96192.76;107982;1284;36261;-75
2021/12/27 10:39:44;;;;;;;41.80;23.90;;;;;;;-7.07;71.32;96194.03;107928;1284;34271;-75
2021/12/27 10:42:15;;;;;;;38.00;21.60;;;;;;;-6.91;71.54;96193.61;107922;1284;38565;-76
2021/12/27 10:44:44;;;;;;;40.10;21.30;;;;;;;-6.73;71.90;96191.13;107991;1283;35389;-76
2021/12/27 10:47:37;;;;;;;37.30;22.10;;;;;;;-6.53;72.03;96191.79;108069;1282;35784;-75
2021/12/27 10:50:11;;;;;;;40.80;22.50;;;;;;;-6.48;71.20;96192.05;108012;1283;28025;-75
2021/12/27 10:52:52;;;;;;;38.90;20.60;;;;;;;-6.51;71.21;96192.88;108029;1283;34522;-75
2021/12/27 10:55:22;;;;;;;39.20;21.80;;;;;;;-6.41;71.49;96187.09;107897;1284;40043;-75
2021/12/27 10:57:51;;;;;;;;;;;;;;;-6.39;71.20;96184.92;107892;1283;33973;-75
2021/12/27 11:00:31;;;;;;;35.30;21.30;;;;;;;-6.38;71.18;96176.02;107905;1283;33304;-75
2021/12/27 11:03:02;;;;;;;;;;;;;;;-6.38;71.09;96173.42;107902;1282;39036;-75
2021/12/27 11:05:33;;;;;;;36.00;22.30;;;;;;;-6.36;70.85;96173.92;108107;1283;33919;-75
2021/12/27 11:08:05;;;;;;;35.70;21.60;;;;;;;-6.30;70.88;96172.02;107857;1284;41681;-75
2021/12/27 11:10:36;;;;;;;33.80;19.80;;;;;;;-6.25;70.88;96164.67;107916;1284;33307;-75
2021/12/27 11:13:05;;;;;;;50.50;26.40;;;;;;;-6.35;70.41;96165.17;107898;1284;41513;-75
2021/12/27 11:15:37;;;;;;;65.00;33.40;;;;;;;-6.86;69.71;96163.27;107887;1283;35422;-75
2021/12/27 11:18:06;;;;;;;65.00;33.70;;;;;;;-7.19;70.07;96157.75;108096;1283;42715;-75